Time;durP1;ratioP1;P1;durP2;ratioP2;P2;SDS_P1;SDS_P2;PMS_P1;PMS_P2;Temp;Humidity;BMP_temperature;BMP_pressure;BME280_temperature;BME280_humidity;BME280_pressure;Samples;Min_cycle;Max_cycle;Signal;HPM_P1;HPM_P2
2021/04/24 00:00:15;;;;;;;;;;;;;;;20.70;33.12;102536.78;2170061;40;115012;-54
2021/04/24 00:01:46;;;;;;;;;;;;;;;20.71;33.17;102534.81;2167033;40;113881;-56
2021/04/24 00:04:55;;;;;;;;;;;;;;;20.70;32.82;102528.34;2167748;40;114001;-57
2021/04/24 00:06:28;;;;;;;;;;;;;;;20.68;33.05;102530.56;2165280;40;114224;-54
2021/04/24 00:08:00;;;;;;;;;;;;;;;20.70;33.11;102536.78;2165518;40;113670;-54
2021/04/24 00:09:31;;;;;;;;;;;;;;;20.71;33.33;102534.81;2165286;40;114112;-55
2021/04/24 00:11:03;;;;;;;;;;;;;;;20.70;33.39;102530.31;2165739;40;113942;-55
2021/04/24 00:12:35;;;;;;;;;;;;;;;20.70;33.31;102528.34;2166934;40;114423;-56
2021/04/24 00:14:06;;;;;;;;;;;;;;;20.70;33.42;102525.53;2164308;40;114245;-55
2021/04/24 00:15:37;;;;;;;;;;;;;;;20.72;33.50;102531.72;2164130;40;113917;-57
2021/04/24 00:17:09;;;;;;;;;;;;;;;20.72;33.36;102534.53;2166556;40;114624;-56
2021/04/24 00:18:41;;;;;;;;;;;;;;;20.72;33.26;102528.06;2167618;40;113808;-55
2021/04/24 00:20:15;;;;;;;;;;;;;;;20.71;33.27;102527.25;2165944;40;114061;-56
2021/04/24 00:21:47;;;;;;;;;;;;;;;20.72;33.25;102526.09;2174025;40;113749;-57
2021/04/24 00:23:19;;;;;;;;;;;;;;;20.73;33.31;102530.63;2163802;40;115335;-56
2021/04/24 00:24:50;;;;;;;;;;;;;;;20.71;33.41;102538.47;2166692;40;114864;-56
2021/04/24 00:26:23;;;;;;;;;;;;;;;20.74;33.49;102535.13;2164531;40;114871;-55
2021/04/24 00:27:54;;;;;;;;;;;;;;;20.70;33.69;102535.94;2174028;40;115210;-57
2021/04/24 00:29:25;;;;;;;;;;;;;;;20.70;33.57;102531.16;2169668;40;115376;-57
2021/04/24 00:30:58;;;;;;;;;;;;;;;20.73;33.43;102532.56;2163860;40;114947;-55
2021/04/24 00:32:31;;;;;;;;;;;;;;;20.71;33.62;102532.00;2172183;40;114920;-56
2021/04/24 00:34:04;;;;;;;;;;;;;;;20.73;33.68;102529.75;2169391;40;115218;-53
2021/04/24 00:35:35;;;;;;;;;;;;;;;20.71;33.70;102532.88;2167652;40;114749;-55
2021/04/24 00:37:06;;;;;;;;;;;;;;;20.71;33.78;102535.69;2168187;40;115179;-57
2021/04/24 00:38:38;;;;;;;;;;;;;;;20.67;33.76;102537.31;2166251;40;115541;-57
2021/04/24 00:40:10;;;;;;;;;;;;;;;20.67;33.68;102544.91;2160532;40;115017;-54
2021/04/24 00:41:42;;;;;;;;;;;;;;;20.67;33.84;102540.13;2165423;40;114950;-55
2021/04/24 00:43:15;;;;;;;;;;;;;;;20.66;33.69;102541.25;2168053;40;114955;-55
2021/04/24 00:44:48;;;;;;;;;;;;;;;20.66;33.68;102541.25;2167082;40;116097;-58
2021/04/24 00:46:20;;;;;;;;;;;;;;;20.67;34.02;102548.53;2173142;40;115365;-58
2021/04/24 00:47:53;;;;;;;;;;;;;;;20.70;33.75;102556.44;2155997;40;115880;-57
2021/04/24 00:49:25;;;;;;;;;;;;;;;20.67;34.37;102545.72;2169796;40;115176;-55
2021/04/24 00:50:57;;;;;;;;;;;;;;;20.65;34.00;102547.13;2169692;40;114957;-57
2021/04/24 00:52:29;;;;;;;;;;;;;;;20.65;33.66;102549.94;2165162;40;115524;-56
2021/04/24 00:54:00;;;;;;;;;;;;;;;20.66;33.91;102546.88;2167728;40;116063;-56
2021/04/24 00:55:32;;;;;;;;;;;;;;;20.64;33.84;102551.06;2172428;40;115266;-56
2021/04/24 00:57:03;;;;;;;;;;;;;;;20.61;34.23;102546.84;2162113;40;115565;-54
2021/04/24 00:58:35;;;;;;;;;;;;;;;20.60;34.08;102542.31;2164296;40;115762;-56
2021/04/24 01:00:08;;;;;;;;;;;;;;;20.61;34.22;102549.63;2172261;40;115573;-54
2021/04/24 01:01:40;;;;;;;;;;;;;;;20.60;34.46;102553.56;2169026;40;115827;-53
2021/04/24 01:03:11;;;;;;;;;;;;;;;20.59;34.13;102546.25;2164176;40;115759;-59
2021/04/24 01:04:43;;;;;;;;;;;;;;;20.59;34.31;102549.06;2169676;40;115519;-57
2021/04/24 01:06:15;;;;;;;;;;;;;;;20.58;34.47;102549.34;2167656;40;114020;-56
2021/04/24 01:07:46;;;;;;;;;;;;;;;20.60;34.46;102547.09;2163648;40;114190;-54
2021/04/24 01:09:18;;;;;;;;;;;;;;;20.57;34.41;102544.84;2167042;40;114021;-57
2021/04/24 01:10:49;;;;;;;;;;;;;;;20.57;34.29;102545.69;2167766;40;113820;-57
2021/04/24 01:12:20;;;;;;;;;;;;;;;20.56;34.48;102543.13;2168655;40;113921;-55
2021/04/24 01:13:52;;;;;;;;;;;;;;;20.56;34.57;102540.31;2168552;40;113630;-56
2021/04/24 01:15:24;;;;;;;;;;;;;;;20.56;34.73;102543.97;2166806;40;114055;-55
2021/04/24 01:16:56;;;;;;;;;;;;;;;20.55;34.70;102541.44;2166224;40;113784;-57
2021/04/24 01:18:27;;;;;;;;;;;;;;;20.54;34.51;102540.59;2165468;40;113683;-56
2021/04/24 01:20:01;;;;;;;;;;;;;;;20.52;34.65;102545.66;2164987;40;113792;-57
2021/04/24 01:21:35;;;;;;;;;;;;;;;20.53;34.65;102543.69;2168466;40;114469;-57
2021/04/24 01:23:09;;;;;;;;;;;;;;;20.56;34.92;102534.72;2168134;40;113921;-54
2021/04/24 01:24:40;;;;;;;;;;;;;;;20.60;34.82;102544.28;2170219;40;114200;-58
2021/04/24 01:26:12;;;;;;;;;;;;;;;20.57;34.99;102534.44;2169568;40;113878;-56
2021/04/24 01:27:47;;;;;;;;;;;;;;;20.54;34.99;102534.97;2171304;40;113974;-56
2021/04/24 01:29:18;;;;;;;;;;;;;;;20.55;35.11;102531.06;2159342;40;115283;-56
2021/04/24 01:30:49;;;;;;;;;;;;;;;20.55;35.22;102533.88;2165110;40;113935;-54
2021/04/24 01:32:20;;;;;;;;;;;;;;;20.54;35.33;102520.09;2165249;40;116691;-57
2021/04/24 01:33:53;;;;;;;;;;;;;;;20.56;35.23;102518.72;2165121;40;114985;-55
2021/04/24 01:35:26;;;;;;;;;;;;;;;20.53;35.10;102526.84;2161604;40;114757;-55
2021/04/24 01:36:58;;;;;;;;;;;;;;;20.55;35.14;102522.63;2166105;40;115080;-55
2021/04/24 01:38:30;;;;;;;;;;;;;;;20.54;35.23;102520.94;2167894;40;114049;-56
2021/04/24 01:40:03;;;;;;;;;;;;;;;20.54;35.60;102522.88;2171175;40;114124;-54
2021/04/24 01:41:34;;;;;;;;;;;;;;;20.53;35.45;102519.25;2157426;40;114930;-56
2021/04/24 01:43:07;;;;;;;;;;;;;;;20.54;35.53;102520.09;2165233;40;114859;-57
2021/04/24 01:44:39;;;;;;;;;;;;;;;20.53;35.46;102519.25;2171837;40;114860;-58
2021/04/24 01:46:13;;;;;;;;;;;;;;;20.55;35.30;102527.41;2167522;40;115204;-56
2021/04/24 01:47:45;;;;;;;;;;;;;;;20.55;35.63;102522.63;2161544;40;114797;-55
2021/04/24 01:49:17;;;;;;;;;;;;;;;20.54;35.26;102520.94;2169187;40;114985;-54
2021/04/24 01:50:48;;;;;;;;;;;;;;;20.54;35.35;102517.28;2165908;40;115700;-58
2021/04/24 01:52:20;;;;;;;;;;;;;;;20.54;35.61;102520.09;2166261;40;114913;-56
2021/04/24 01:55:35;;;;;;;;;;;;;;;20.51;35.65;102515.88;2168248;40;116407;-57
2021/04/24 01:57:06;;;;;;;;;;;;;;;20.53;35.60;102515.59;2168102;40;115636;-54
2021/04/24 01:58:38;;;;;;;;;;;;;;;20.53;35.56;102512.78;2168019;40;115842;-56
2021/04/24 02:00:12;;;;;;;;;;;;;;;20.54;35.62;102511.66;2173630;40;115613;-55
2021/04/24 02:01:47;;;;;;;;;;;;;;;20.55;35.76;102514.19;2157131;40;115596;-54
2021/04/24 02:03:19;;;;;;;;;;;;;;;20.54;35.81;102509.69;2169626;40;115496;-57
2021/04/24 02:04:50;;;;;;;;;;;;;;;20.54;35.79;102509.69;2163860;40;116186;-56
2021/04/24 02:06:22;;;;;;;;;;;;;;;20.54;35.91;102504.09;2163477;40;115580;-56
2021/04/24 02:07:56;;;;;;;;;;;;;;;20.56;35.63;102501.00;2168403;40;116579;-55
2021/04/24 02:09:29;;;;;;;;;;;;;;;20.57;36.00;102502.72;2168505;40;115618;-55
2021/04/24 02:11:02;;;;;;;;;;;;;;;20.54;36.03;102494.81;2170061;40;115717;-57
2021/04/24 02:12:33;;;;;;;;;;;;;;;20.55;35.75;102496.50;2161834;40;114205;-57
2021/04/24 02:14:05;;;;;;;;;;;;;;;20.54;36.07;102500.44;2167209;40;113875;-57
2021/04/24 02:15:37;;;;;;;;;;;;;;;20.54;36.11;102498.47;2162473;40;114015;-56
2021/04/24 02:17:10;;;;;;;;;;;;;;;20.54;35.98;102500.44;2163183;40;114310;-56
2021/04/24 02:18:41;;;;;;;;;;;;;;;20.54;36.30;102498.47;2157927;40;114452;-58
2021/04/24 02:20:13;;;;;;;;;;;;;;;20.54;36.18;102500.44;2165363;40;114314;-55
2021/04/24 02:21:46;;;;;;;;;;;;;;;20.54;36.12;102490.03;2168480;40;114050;-56
2021/04/24 02:23:17;;;;;;;;;;;;;;;20.56;36.25;102492.59;2167561;40;113708;-56
2021/04/24 02:24:50;;;;;;;;;;;;;;;20.56;36.54;102495.41;2167557;40;113881;-55
2021/04/24 02:26:22;;;;;;;;;;;;;;;20.55;36.29;102488.94;2156717;40;114183;-57
2021/04/24 02:27:53;;;;;;;;;;;;;;;20.55;36.38;102491.75;2161975;40;113777;-54
2021/04/24 02:29:24;;;;;;;;;;;;;;;20.55;36.79;102499.31;2163208;40;113714;-58
2021/04/24 02:30:56;;;;;;;;;;;;;;;20.56;36.76;102493.44;2164842;40;114057;-55
2021/04/24 02:32:30;;;;;;;;;;;;;;;20.55;36.81;102491.75;2165829;40;114186;-55
2021/04/24 02:34:03;;;;;;;;;;;;;;;20.57;36.93;102495.13;2161110;40;114583;-56
2021/04/24 02:35:37;;;;;;;;;;;;;;;20.56;36.73;102489.78;2165247;40;115123;-53
2021/04/24 02:37:09;;;;;;;;;;;;;;;20.55;37.04;102488.09;2167423;40;115013;-56
2021/04/24 02:38:48;;;;;;;;;;;;;;;20.55;37.19;102488.09;2167398;40;115129;-55
2021/04/24 02:40:22;;;;;;;;;;;;;;;20.55;36.73;102488.09;2166944;40;114969;-56
2021/04/24 02:41:54;;;;;;;;;;;;;;;20.58;36.96;102490.38;2168737;40;115135;-56
2021/04/24 02:43:28;;;;;;;;;;;;;;;20.56;37.31;102484.16;2167881;40;116009;-56
2021/04/24 02:46:35;;;;;;;;;;;;;;;20.56;37.45;102478.56;2173289;40;114926;-56
2021/04/24 02:48:07;;;;;;;;;;;;;;;20.55;37.52;102488.94;2167715;40;115419;-57
2021/04/24 02:49:39;;;;;;;;;;;;;;;20.55;37.54;102486.13;2170587;40;114982;-57
2021/04/24 02:51:10;;;;;;;;;;;;;;;20.57;37.45;102483.06;2169987;40;115045;-55
2021/04/24 02:52:41;;;;;;;;;;;;;;;20.55;37.60;102493.69;2167321;40;114927;-57
2021/04/24 02:54:13;;;;;;;;;;;;;;;20.57;37.30;102480.25;2153818;40;114630;-56
2021/04/24 02:55:44;;;;;;;;;;;;;;;20.56;36.94;102482.22;2164233;40;115913;-53
2021/04/24 02:57:15;;;;;;;;;;;;;;;20.56;37.44;102482.22;2165926;40;114635;-57
2021/04/24 02:58:47;;;;;;;;;;;;;;;20.56;37.04;102489.78;2166041;40;115219;-56
2021/04/24 03:00:19;;;;;;;;;;;;;;;20.54;37.38;102481.63;2166947;40;115578;-54
2021/04/24 03:01:50;;;;;;;;;;;;;;;20.56;37.45;102479.41;2167559;40;115505;-54
2021/04/24 03:03:22;;;;;;;;;;;;;;;20.56;37.22;102470.13;2173278;40;115492;-57
2021/04/24 03:04:53;;;;;;;;;;;;;;;20.56;37.31;102473.78;2167873;40;116405;-53
2021/04/24 03:06:24;;;;;;;;;;;;;;;20.53;37.30;102474.34;2167968;40;115846;-56
2021/04/24 03:07:56;;;;;;;;;;;;;;;20.56;37.33;102475.75;2165458;40;115556;-55
2021/04/24 03:09:27;;;;;;;;;;;;;;;20.54;37.47;102480.78;2165076;40;116047;-55
2021/04/24 03:11:00;;;;;;;;;;;;;;;20.53;37.65;102476.28;2166667;40;115576;-57
2021/04/24 03:12:33;;;;;;;;;;;;;;;20.55;37.22;102479.66;2165421;40;116104;-56
2021/04/24 03:14:05;;;;;;;;;;;;;;;20.53;37.32;102482.75;2167788;40;115517;-57
2021/04/24 03:15:38;;;;;;;;;;;;;;;20.53;37.34;102479.09;2162038;40;115506;-54
2021/04/24 03:17:11;;;;;;;;;;;;;;;20.53;37.08;102477.16;2169372;40;116092;-56
2021/04/24 03:18:42;;;;;;;;;;;;;;;20.53;37.25;102487.53;2160662;40;113852;-54
2021/04/24 03:20:15;;;;;;;;;;;;;;;20.54;37.10;102486.38;2165580;40;113751;-58
2021/04/24 03:21:47;;;;;;;;;;;;;;;20.52;37.13;102474.59;2168530;40;114122;-55
2021/04/24 03:23:19;;;;;;;;;;;;;;;20.52;37.09;102477.41;2168468;40;113990;-55
2021/04/24 03:24:51;;;;;;;;;;;;;;;20.51;37.19;102476.56;2166979;40;116139;-55
2021/04/24 03:26:23;;;;;;;;;;;;;;;20.51;37.32;102475.72;2168084;40;114427;-56
2021/04/24 03:27:54;;;;;;;;;;;;;;;20.51;37.04;102479.38;2170650;40;114011;-55
2021/04/24 03:29:26;;;;;;;;;;;;;;;20.52;37.12;102474.59;2159175;40;114006;-58
2021/04/24 03:30:57;;;;;;;;;;;;;;;20.52;37.02;102485.81;2164305;40;113846;-55
2021/04/24 03:32:28;;;;;;;;;;;;;;;20.51;36.83;102482.16;2161726;40;113967;-53
2021/04/24 03:34:00;;;;;;;;;;;;;;;20.50;37.16;102480.47;2161325;40;113838;-55
2021/04/24 03:35:32;;;;;;;;;;;;;;;20.49;37.07;102481.59;2165833;40;113849;-57
2021/04/24 03:37:05;;;;;;;;;;;;;;;20.48;37.40;102479.91;2165739;40;114136;-57
2021/04/24 03:38:36;;;;;;;;;;;;;;;20.47;37.39;102474.56;2166743;40;114197;-56
2021/04/24 03:40:09;;;;;;;;;;;;;;;20.48;37.37;102476.25;2166837;40;113975;-58
2021/04/24 03:41:40;;;;;;;;;;;;;;;20.50;37.67;102485.25;2163970;40;114907;-55
2021/04/24 03:43:12;;;;;;;;;;;;;;;20.48;37.18;102485.53;2166958;40;115625;-56
2021/04/24 03:44:43;;;;;;;;;;;;;;;20.49;37.13;102481.59;2164172;40;114819;-56
2021/04/24 03:46:18;;;;;;;;;;;;;;;20.49;37.40;102484.38;2167221;40;115298;-54
2021/04/24 03:47:51;;;;;;;;;;;;;;;20.48;37.42;102479.91;2167139;40;114950;-57
2021/04/24 03:49:22;;;;;;;;;;;;;;;20.50;37.57;102488.03;2167707;40;114845;-55
2021/04/24 03:50:54;;;;;;;;;;;;;;;20.49;37.49;102489.19;2167596;40;115364;-55
2021/04/24 03:52:26;;;;;;;;;;;;;;;20.48;37.25;102490.28;2167805;40;114902;-56
2021/04/24 03:53:58;;;;;;;;;;;;;;;20.48;37.82;102488.34;2168316;40;115812;-57
2021/04/24 03:55:30;;;;;;;;;;;;;;;20.49;37.63;102487.19;2161865;40;115316;-58
2021/04/24 03:57:03;;;;;;;;;;;;;;;20.49;37.46;102498.44;2161802;40;113979;-55
2021/04/24 03:58:34;;;;;;;;;;;;;;;20.50;37.15;102493.66;2161994;40;115397;-57
2021/04/24 04:00:07;;;;;;;;;;;;;;;20.49;37.23;102489.19;2164498;40;115418;-57
2021/04/24 04:01:38;;;;;;;;;;;;;;;20.49;37.60;102494.81;2161612;40;115628;-57
2021/04/24 04:03:10;;;;;;;;;;;;;;;20.47;37.41;102497.88;2174613;40;115558;-56
2021/04/24 04:04:41;;;;;;;;;;;;;;;20.49;37.41;102494.81;2165453;40;115658;-56
2021/04/24 04:06:13;;;;;;;;;;;;;;;20.46;37.39;102493.38;2172127;40;115676;-57
2021/04/24 04:07:45;;;;;;;;;;;;;;;20.48;37.57;102499.56;2161776;40;115627;-55
2021/04/24 04:09:17;;;;;;;;;;;;;;;20.48;37.21;102496.75;2173568;40;115397;-56
2021/04/24 04:10:49;;;;;;;;;;;;;;;20.47;37.35;102495.06;2164601;40;115613;-55
2021/04/24 04:12:21;;;;;;;;;;;;;;;20.45;37.30;102491.66;2161302;40;116003;-54
2021/04/24 04:13:52;;;;;;;;;;;;;;;20.46;37.20;102489.72;2161598;40;115556;-57
2021/04/24 04:15:26;;;;;;;;;;;;;;;20.47;37.07;102497.88;2171314;40;115553;-55
2021/04/24 04:16:57;;;;;;;;;;;;;;;20.44;37.52;102492.81;2165973;40;115599;-55
2021/04/24 04:18:32;;;;;;;;;;;;;;;20.45;37.43;102497.28;2157681;40;115471;-55
2021/04/24 04:20:06;;;;;;;;;;;;;;;20.44;37.70;102494.75;2156189;40;115693;-56
2021/04/24 04:21:38;;;;;;;;;;;;;;;20.44;37.44;102497.56;2169598;40;115821;-56
2021/04/24 04:23:10;;;;;;;;;;;;;;;20.44;37.16;102498.41;2169031;40;113927;-55
2021/04/24 04:24:41;;;;;;;;;;;;;;;20.45;37.21;102499.25;2173968;40;113604;-56
2021/04/24 04:26:13;;;;;;;;;;;;;;;20.42;37.60;102495.03;2158036;40;113981;-57
2021/04/24 04:27:44;;;;;;;;;;;;;;;20.42;37.19;102495.03;2159050;40;113676;-56
2021/04/24 04:29:15;;;;;;;;;;;;;;;20.44;37.25;102494.75;2173232;40;113966;-54
2021/04/24 04:30:48;;;;;;;;;;;;;;;20.41;37.59;102502.59;2167414;40;113752;-57
2021/04/24 04:32:21;;;;;;;;;;;;;;;20.42;37.13;102497.84;2165824;40;113679;-55
2021/04/24 04:33:52;;;;;;;;;;;;;;;20.42;37.06;102497.84;2171952;40;114074;-54
2021/04/24 04:35:23;;;;;;;;;;;;;;;20.42;37.27;102503.44;2167211;40;113962;-54
2021/04/24 04:36:55;;;;;;;;;;;;;;;20.39;37.45;102496.44;2164906;40;113895;-57
2021/04/24 04:38:26;;;;;;;;;;;;;;;20.40;37.40;102500.91;2163561;40;115378;-54
2021/04/24 04:39:58;;;;;;;;;;;;;;;20.40;37.70;102502.84;2168217;40;113752;-58
2021/04/24 04:41:29;;;;;;;;;;;;;;;20.42;37.27;102511.88;2160874;40;114230;-55
2021/04/24 04:43:01;;;;;;;;;;;;;;;20.39;37.41;102509.63;2168949;40;113766;-54
2021/04/24 04:44:32;;;;;;;;;;;;;;;20.39;37.33;102507.66;2166133;40;113778;-53
2021/04/24 04:46:05;;;;;;;;;;;;;;;20.38;37.64;102505.97;2155595;40;114900;-58
2021/04/24 04:47:37;;;;;;;;;;;;;;;20.39;37.37;102512.41;2168411;40;114160;-57
2021/04/24 04:49:09;;;;;;;;;;;;;;;20.37;37.64;102511.81;2162305;40;114767;-56
2021/04/24 04:50:41;;;;;;;;;;;;;;;20.38;37.62;102510.72;2164863;40;115021;-55
2021/04/24 04:52:12;;;;;;;;;;;;;;;20.37;37.28;102518.28;2167219;40;115447;-57
2021/04/24 04:53:44;;;;;;;;;;;;;;;20.37;37.35;102518.28;2167446;40;115427;-54
2021/04/24 04:55:16;;;;;;;;;;;;;;;20.37;37.44;102517.44;2168222;40;114842;-54
2021/04/24 04:56:48;;;;;;;;;;;;;;;20.35;37.73;102517.69;2160755;40;114843;-55
2021/04/24 04:58:20;;;;;;;;;;;;;;;20.36;37.44;102510.13;2166126;40;115116;-55
2021/04/24 04:59:52;;;;;;;;;;;;;;;20.36;37.25;102508.16;2168577;40;115089;-53
2021/04/24 05:01:23;;;;;;;;;;;;;;;20.37;37.25;102512.69;2166632;40;115115;-53
2021/04/24 05:02:55;;;;;;;;;;;;;;;20.37;37.31;102509.03;2163862;40;114981;-57
2021/04/24 05:04:26;;;;;;;;;;;;;;;20.38;37.62;102511.56;2167693;40;114997;-56
2021/04/24 05:05:59;;;;;;;;;;;;;;;20.35;37.40;102505.66;2165432;40;114941;-55
2021/04/24 05:07:30;;;;;;;;;;;;;;;20.36;37.42;102510.13;2163659;40;115652;-57
2021/04/24 05:09:22;;;;;;;;;;;;;;;20.34;37.59;102518.00;2168016;40;116360;-55
2021/04/24 05:10:54;;;;;;;;;;;;;;;20.33;37.48;102516.28;2166890;40;115991;-57
2021/04/24 05:12:25;;;;;;;;;;;;;;;20.32;37.61;102515.44;2168363;40;116602;-54
2021/04/24 05:13:56;;;;;;;;;;;;;;;20.31;37.82;102521.31;2166215;40;115585;-59
2021/04/24 05:15:28;;;;;;;;;;;;;;;20.32;37.56;102515.44;2168430;40;116170;-57
2021/04/24 05:16:59;;;;;;;;;;;;;;;20.32;37.56;102520.22;2166987;40;115891;-57
2021/04/24 05:18:31;;;;;;;;;;;;;;;20.32;37.97;102523.00;2161207;40;116133;-57
2021/04/24 05:20:03;;;;;;;;;;;;;;;20.32;37.72;102518.25;2162322;40;115685;-55
2021/04/24 05:21:36;;;;;;;;;;;;;;;20.33;37.66;102527.53;2172966;40;115369;-56
2021/04/24 05:23:08;;;;;;;;;;;;;;;20.32;37.80;102523.00;2158175;40;115765;-55
2021/04/24 05:24:39;;;;;;;;;;;;;;;20.31;37.71;102522.16;2161106;40;115817;-57
2021/04/24 05:26:11;;;;;;;;;;;;;;;20.30;38.21;102525.25;2163888;40;115790;-56
2021/04/24 05:27:45;;;;;;;;;;;;;;;20.31;38.09;102521.31;2168109;40;114531;-53
2021/04/24 05:29:16;;;;;;;;;;;;;;;20.33;37.93;102525.56;2173881;40;114078;-56
2021/04/24 05:30:48;;;;;;;;;;;;;;;20.30;38.04;102519.66;2167941;40;113974;-55
2021/04/24 05:32:19;;;;;;;;;;;;;;;20.31;37.97;102522.16;2168282;40;113751;-58
2021/04/24 05:33:51;;;;;;;;;;;;;;;20.29;37.78;102517.91;2166428;40;113587;-55
2021/04/24 05:35:23;;;;;;;;;;;;;;;20.28;38.10;102522.69;2167970;40;113682;-56
2021/04/24 05:36:56;;;;;;;;;;;;;;;20.31;38.11;102518.50;2168275;40;113610;-57
2021/04/24 05:38:27;;;;;;;;;;;;;;;20.36;38.44;102524.16;2168275;40;113685;-55
2021/04/24 05:39:59;;;;;;;;;;;;;;;20.40;38.80;102525.31;2168183;40;113735;-57
2021/04/24 05:41:35;;;;;;;;;;;;;;;20.40;38.89;102523.34;2173441;40;113935;-55
2021/04/24 05:43:07;;;;;;;;;;;;;;;20.42;38.68;102526.75;2169792;40;115431;-56
2021/04/24 05:44:40;;;;;;;;;;;;;;;20.45;38.85;102525.34;2168279;40;114276;-54
2021/04/24 05:46:11;;;;;;;;;;;;;;;20.49;38.76;102526.50;2168251;40;113754;-55
2021/04/24 05:47:45;;;;;;;;;;;;;;;20.52;38.49;102526.00;2168134;40;113648;-55
2021/04/24 05:49:17;;;;;;;;;;;;;;;20.57;38.75;102531.66;2161961;40;116361;-55
2021/04/24 05:50:50;;;;;;;;;;;;;;;20.62;38.62;102523.25;2161189;40;114869;-56
2021/04/24 05:52:21;;;;;;;;;;;;;;;20.64;39.19;102523.81;2168137;40;113973;-54
2021/04/24 05:53:53;;;;;;;;;;;;;;;20.68;39.00;102526.91;2167783;40;115518;-54
2021/04/24 05:55:24;;;;;;;;;;;;;;;20.73;39.08;102529.75;2172806;40;115203;-55
2021/04/24 05:56:56;;;;;;;;;;;;;;;20.78;39.62;102533.47;2163573;40;115235;-55
2021/04/24 05:58:27;;;;;;;;;;;;;;;20.81;39.11;102527.28;2166165;40;114935;-56
2021/04/24 05:59:59;;;;;;;;;;;;;;;20.86;39.38;102530.13;2167533;40;115074;-57
2021/04/24 06:01:31;;;;;;;;;;;;;;;20.91;38.91;102534.09;2168251;40;114953;-56
2021/04/24 06:03:02;;;;;;;;;;;;;;;20.96;38.93;102534.97;2161161;40;114815;-56
2021/04/24 06:04:34;;;;;;;;;;;;;;;21.03;38.82;102537.53;2165738;40;115404;-56
2021/04/24 06:06:05;;;;;;;;;;;;;;;21.06;39.08;102531.38;2170546;40;115289;-55
2021/04/24 06:07:37;;;;;;;;;;;;;;;21.12;38.71;102527.47;2160820;40;113991;-54
2021/04/24 06:09:08;;;;;;;;;;;;;;;21.15;38.59;102535.38;2171794;40;114949;-55
2021/04/24 06:10:40;;;;;;;;;;;;;;;21.20;38.42;102536.25;2170636;40;114932;-56
2021/04/24 06:12:12;;;;;;;;;;;;;;;21.26;38.57;102534.28;2165112;40;116081;-57
2021/04/24 06:13:43;;;;;;;;;;;;;;;21.30;38.16;102539.06;2167810;40;115647;-56
2021/04/24 06:15:16;;;;;;;;;;;;;;;21.37;38.78;102543.63;2167817;40;115422;-56
2021/04/24 06:16:47;;;;;;;;;;;;;;;21.42;38.47;102541.66;2168420;40;115580;-55
2021/04/24 06:18:18;;;;;;;;;;;;;;;21.47;38.20;102544.50;2173766;40;116017;-55
2021/04/24 06:19:51;;;;;;;;;;;;;;;21.52;38.31;102552.97;2165652;40;115605;-54
2021/04/24 06:21:23;;;;;;;;;;;;;;;21.59;38.04;102556.34;2163756;40;115883;-56
2021/04/24 06:22:54;;;;;;;;;;;;;;;21.62;38.05;102554.97;2165969;40;116102;-58
2021/04/24 06:24:26;;;;;;;;;;;;;;;21.66;37.96;102547.66;2167867;40;115808;-53
2021/04/24 06:27:31;;;;;;;;;;;;;;;21.73;37.65;102551.88;2166063;40;115824;-56
2021/04/24 06:29:03;;;;;;;;;;;;;;;21.79;37.58;102560.34;2168013;40;115638;-57
2021/04/24 06:30:34;;;;;;;;;;;;;;;21.81;37.28;102553.31;2168046;40;115519;-55
2021/04/24 06:32:06;;;;;;;;;;;;;;;21.85;37.43;102557.25;2173294;40;116417;-56
2021/04/24 06:33:38;;;;;;;;;;;;;;;21.89;37.00;102554.75;2168457;40;115597;-57
2021/04/24 06:35:11;;;;;;;;;;;;;;;21.94;37.30;102557.59;2163453;40;114112;-57
2021/04/24 06:36:43;;;;;;;;;;;;;;;21.98;36.98;102550.28;2172096;40;113634;-55
2021/04/24 06:38:14;;;;;;;;;;;;;;;22.01;36.81;102542.13;2162425;40;113854;-54
2021/04/24 06:39:46;;;;;;;;;;;;;;;22.04;37.37;102544.38;2164700;40;114337;-56
2021/04/24 06:41:17;;;;;;;;;;;;;;;22.08;37.55;102544.66;2166298;40;113554;-55
2021/04/24 06:42:48;;;;;;;;;;;;;;;22.12;37.36;102543.81;2166609;40;113907;-56
2021/04/24 06:44:20;;;;;;;;;;;;;;;22.15;37.62;102542.41;2166468;40;113740;-56
2021/04/24 06:45:52;;;;;;;;;;;;;;;22.20;36.89;102547.22;2165959;40;113608;-56
2021/04/24 06:47:24;;;;;;;;;;;;;;;22.24;37.50;102546.38;2167245;40;113925;-54
2021/04/24 06:48:56;;;;;;;;;;;;;;;22.28;37.45;102546.63;2166840;40;113709;-56
2021/04/24 06:50:28;;;;;;;;;;;;;;;22.30;37.35;102550.03;2167368;40;114052;-56
2021/04/24 06:51:59;;;;;;;;;;;;;;;22.34;36.73;102557.63;2169000;40;113948;-55
2021/04/24 06:53:31;;;;;;;;;;;;;;;22.37;37.28;102545.78;2169776;40;113812;-56
2021/04/24 06:55:04;;;;;;;;;;;;;;;22.40;36.91;102548.03;2169173;40;113844;-55
2021/04/24 06:56:36;;;;;;;;;;;;;;;22.43;36.93;102550.31;2158997;40;115050;-56
2021/04/24 06:58:08;;;;;;;;;;;;;;;22.44;36.84;102551.97;2171618;40;115154;-55
2021/04/24 06:59:40;;;;;;;;;;;;;;;22.48;37.07;102550.31;2167222;40;113930;-57
2021/04/24 07:01:14;;;;;;;;;;;;;;;22.52;37.13;102548.63;2171781;40;115771;-57
2021/04/24 07:02:48;;;;;;;;;;;;;;;22.56;36.90;102549.72;2162416;40;114949;-57
2021/04/24 07:04:20;;;;;;;;;;;;;;;22.60;37.06;102547.19;2161152;40;114653;-57
2021/04/24 07:05:52;;;;;;;;;;;;;;;22.64;36.99;102551.13;2160669;40;115102;-56
2021/04/24 07:07:24;;;;;;;;;;;;;;;22.67;37.10;102552.53;2166147;40;113927;-54
2021/04/24 07:08:56;;;;;;;;;;;;;;;22.70;36.94;102560.44;2167802;40;114795;-54
2021/04/24 07:10:27;;;;;;;;;;;;;;;22.73;36.74;102555.09;2167777;40;115559;-52
2021/04/24 07:11:58;;;;;;;;;;;;;;;22.76;36.53;102551.69;2168235;40;115004;-56
2021/04/24 07:13:30;;;;;;;;;;;;;;;22.80;36.71;102552.84;2166040;40;114893;-57
2021/04/24 07:15:02;;;;;;;;;;;;;;;22.83;36.80;102559.84;2165165;40;114889;-57
2021/04/24 07:16:33;;;;;;;;;;;;;;;22.86;36.89;102556.47;2170648;40;117373;-57
2021/04/24 07:18:05;;;;;;;;;;;;;;;22.89;36.72;102561.56;2167195;40;116007;-55
2021/04/24 07:19:37;;;;;;;;;;;;;;;22.91;36.73;102557.31;2172020;40;115665;-55
2021/04/24 07:21:08;;;;;;;;;;;;;;;22.95;36.63;102561.22;2169711;40;115572;-55
2021/04/24 07:22:41;;;;;;;;;;;;;;;22.98;36.62;102568.28;2167986;40;115771;-55
2021/04/24 07:24:12;;;;;;;;;;;;;;;22.99;36.63;102558.69;2173379;40;115707;-55
2021/04/24 07:25:44;;;;;;;;;;;;;;;23.02;36.39;102561.78;2159569;40;114756;-53
2021/04/24 07:27:15;;;;;;;;;;;;;;;23.03;36.29;102566.28;2165703;40;116074;-56
2021/04/24 07:28:47;;;;;;;;;;;;;;;23.05;36.25;102566.84;2173472;40;115747;-54
2021/04/24 07:30:20;;;;;;;;;;;;;;;23.09;36.52;102569.94;2162575;40;116211;-55
2021/04/24 07:31:51;;;;;;;;;;;;;;;23.11;36.37;102567.69;2163767;40;115342;-56
2021/04/24 07:33:23;;;;;;;;;;;;;;;23.16;36.17;102570.50;2160840;40;115356;-58
2021/04/24 07:34:55;;;;;;;;;;;;;;;23.18;35.94;102565.41;2165747;40;115849;-58
2021/04/24 07:36:28;;;;;;;;;;;;;;;23.22;35.94;102571.28;2168238;40;115487;-57
2021/04/24 07:37:59;;;;;;;;;;;;;;;23.24;35.93;102574.69;2170142;40;115769;-56
2021/04/24 07:39:31;;;;;;;;;;;;;;;23.28;35.90;102572.97;2168009;40;113869;-55
2021/04/24 07:41:02;;;;;;;;;;;;;;;23.31;35.81;102566.75;2160771;40;113725;-57
2021/04/24 07:42:34;;;;;;;;;;;;;;;23.33;35.71;102573.81;2164020;40;114141;-57
2021/04/24 07:44:06;;;;;;;;;;;;;;;23.36;35.71;102573.22;2166024;40;113728;-55
2021/04/24 07:45:38;;;;;;;;;;;;;;;23.38;35.68;102567.31;2167589;40;113879;-54
2021/04/24 07:47:09;;;;;;;;;;;;;;;23.41;35.69;102572.34;2163924;40;115368;-54
2021/04/24 07:48:42;;;;;;;;;;;;;;;23.44;35.68;102571.81;2167244;40;113697;-57
2021/04/24 07:50:14;;;;;;;;;;;;;;;23.44;35.56;102572.66;2166713;40;114048;-57
2021/04/24 07:51:45;;;;;;;;;;;;;;;23.47;35.50;102571.25;2167386;40;113742;-55
2021/04/24 07:53:20;;;;;;;;;;;;;;;23.48;35.48;102561.66;2166342;40;113986;-55